Terminal Aerodrome Forecast
Issued by NWS

Home | Current Version | Previous Version | Text Only | Print | Product List | Glossary On
Versions: 1 2 3 4 5 6 7 8 9 10 11 12 13 14 15 16 17 18 19 20 21 22 23
000
FTUS41 KBGM 010544
TAFELM
TAF
KELM 010544Z 0106/0206 VRB02KT P6SM BKN035
     FM010800 24003KT 5SM BR FEW009 BKN020
      TEMPO 0109/0113 OVC009
     FM011400 26008G16KT P6SM BKN040
      TEMPO 0115/0119 3SM TSRA OVC025CB
     FM012200 27008KT P6SM SCT040 BKN090=

USA.gov is the U.S. government's official web portal to all federal, state and local government web resources and services.